sensor_id;sensor_type;location;lat;lon;timestamp;pressure;altitude;pressure_sealevel;temperature;humidity
76201;BME280;64981;52.930;9.266;2024-01-16T00:01:42;100004.19;;;2.01;76.42
76201;BME280;64981;52.930;9.266;2024-01-16T00:04:08;100002.59;;;1.78;77.58
76201;BME280;64981;52.930;9.266;2024-01-16T00:06:33;100009.84;;;1.74;78.19
76201;BME280;64981;52.930;9.266;2024-01-16T00:08:59;100017.63;;;1.74;78.46
76201;BME280;64981;52.930;9.266;2024-01-16T00:11:24;100017.63;;;1.74;78.97
76201;BME280;64981;52.930;9.266;2024-01-16T00:13:50;100015.72;;;1.87;78.24
76201;BME280;64981;52.930;9.266;2024-01-16T00:16:16;100025.69;;;1.71;78.80
76201;BME280;64981;52.930;9.266;2024-01-16T00:18:41;100028.59;;;1.89;78.37
76201;BME280;64981;52.930;9.266;2024-01-16T00:24:09;100034.28;;;1.83;78.57
76201;BME280;64981;52.930;9.266;2024-01-16T00:26:35;100038.44;;;1.85;78.45
76201;BME280;64981;52.930;9.266;2024-01-16T00:29:01;100040.38;;;1.72;78.36
76201;BME280;64981;52.930;9.266;2024-01-16T00:31:26;100037.47;;;1.86;78.04
76201;BME280;64981;52.930;9.266;2024-01-16T00:33:52;100046.25;;;1.85;77.58
76201;BME280;64981;52.930;9.266;2024-01-16T00:36:18;100044.66;;;1.62;78.13
76201;BME280;64981;52.930;9.266;2024-01-16T00:38:44;100053.28;;;1.62;78.36
76201;BME280;64981;52.930;9.266;2024-01-16T00:41:10;100051.03;;;1.69;77.59
76201;BME280;64981;52.930;9.266;2024-01-16T00:43:36;100052.22;;;1.65;78.01
76201;BME280;64981;52.930;9.266;2024-01-16T00:46:01;100055.84;;;1.73;78.10
76201;BME280;64981;52.930;9.266;2024-01-16T00:48:27;100051.16;;;1.67;77.22
76201;BME280;64981;52.930;9.266;2024-01-16T00:50:52;100057.63;;;1.84;76.95
76201;BME280;64981;52.930;9.266;2024-01-16T00:53:18;100061.34;;;1.59;77.96
76201;BME280;64981;52.930;9.266;2024-01-16T00:55:44;100070.22;;;1.46;78.82
76201;BME280;64981;52.930;9.266;2024-01-16T00:58:26;100077.91;;;1.58;78.22
76201;BME280;64981;52.930;9.266;2024-01-16T01:00:52;100081.59;;;1.56;78.75
76201;BME280;64981;52.930;9.266;2024-01-16T01:03:18;100084.53;;;1.62;78.16
76201;BME280;64981;52.930;9.266;2024-01-16T01:05:43;100090.56;;;1.63;78.11
76201;BME280;64981;52.930;9.266;2024-01-16T01:08:09;100100.25;;;1.72;77.59
76201;BME280;64981;52.930;9.266;2024-01-16T01:10:35;100102.03;;;1.60;78.01
76201;BME280;64981;52.930;9.266;2024-01-16T01:13:00;100095.88;;;1.61;78.06
76201;BME280;64981;52.930;9.266;2024-01-16T01:15:26;100100.25;;;1.72;77.52
76201;BME280;64981;52.930;9.266;2024-01-16T01:17:51;100105.59;;;1.59;78.70
76201;BME280;64981;52.930;9.266;2024-01-16T01:20:18;100106.81;;;1.44;79.04
76201;BME280;64981;52.930;9.266;2024-01-16T01:22:45;100099.56;;;1.59;78.42
76201;BME280;64981;52.930;9.266;2024-01-16T01:25:11;100110.91;;;1.69;78.03
76201;BME280;64981;52.930;9.266;2024-01-16T01:27:38;100104.75;;;1.59;78.60
76201;BME280;64981;52.930;9.266;2024-01-16T01:30:05;100107.03;;;1.41;79.57
76201;BME280;64981;52.930;9.266;2024-01-16T01:32:30;100106.88;;;1.54;78.88
76201;BME280;64981;52.930;9.266;2024-01-16T01:34:56;100100.88;;;1.31;79.76
76201;BME280;64981;52.930;9.266;2024-01-16T01:37:22;100107.84;;;1.42;79.65
76201;BME280;64981;52.930;9.266;2024-01-16T01:39:47;100107.84;;;1.42;79.37
76201;BME280;64981;52.930;9.266;2024-01-16T01:42:14;100115.75;;;1.51;79.16
76201;BME280;64981;52.930;9.266;2024-01-16T01:44:40;100124.28;;;1.53;78.94
76201;BME280;64981;52.930;9.266;2024-01-16T01:47:07;100125.94;;;1.43;79.42
76201;BME280;64981;52.930;9.266;2024-01-16T01:49:35;100128.66;;;1.42;79.78
76201;BME280;64981;52.930;9.266;2024-01-16T01:52:02;100124.19;;;1.22;80.76
76201;BME280;64981;52.930;9.266;2024-01-16T01:54:30;100122.16;;;1.47;80.22
76201;BME280;64981;52.930;9.266;2024-01-16T01:56:57;100123.81;;;1.48;79.40
76201;BME280;64981;52.930;9.266;2024-01-16T01:59:24;100130.44;;;1.52;78.89
76201;BME280;64981;52.930;9.266;2024-01-16T02:01:52;100135.03;;;1.49;78.86
76201;BME280;64981;52.930;9.266;2024-01-16T02:04:19;100132.91;;;1.54;77.98
76201;BME280;64981;52.930;9.266;2024-01-16T02:06:45;100147.09;;;1.72;76.91
76201;BME280;64981;52.930;9.266;2024-01-16T02:09:12;100150.09;;;1.56;76.87
76201;BME280;64981;52.930;9.266;2024-01-16T02:11:39;100142.03;;;1.37;77.17
76201;BME280;64981;52.930;9.266;2024-01-16T02:14:05;100165.78;;;1.33;77.27
76201;BME280;64981;52.930;9.266;2024-01-16T02:16:37;100157.06;;;1.34;77.32
76201;BME280;64981;52.930;9.266;2024-01-16T02:19:04;100161.09;;;1.38;76.71
76201;BME280;64981;52.930;9.266;2024-01-16T02:21:39;100164.38;;;1.29;76.89
76201;BME280;64981;52.930;9.266;2024-01-16T02:24:08;100174.44;;;1.22;76.44
76201;BME280;64981;52.930;9.266;2024-01-16T02:26:33;100168.16;;;1.25;76.62
76201;BME280;64981;52.930;9.266;2024-01-16T02:29:01;100164.50;;;1.38;75.87
76201;BME280;64981;52.930;9.266;2024-01-16T02:31:28;100175.78;;;1.04;76.46
76201;BME280;64981;52.930;9.266;2024-01-16T02:33:54;100180.59;;;0.86;77.47
76201;BME280;64981;52.930;9.266;2024-01-16T02:36:19;100195.88;;;0.91;77.38
76201;BME280;64981;52.930;9.266;2024-01-16T02:38:45;100197.88;;;0.98;77.59
76201;BME280;64981;52.930;9.266;2024-01-16T02:41:13;100215.38;;;0.96;77.89
76201;BME280;64981;52.930;9.266;2024-01-16T02:43:39;100213.88;;;1.05;77.93
76201;BME280;64981;52.930;9.266;2024-01-16T02:46:05;100209.47;;;0.94;78.66
76201;BME280;64981;52.930;9.266;2024-01-16T02:48:30;100212.88;;;0.95;79.29
76201;BME280;64981;52.930;9.266;2024-01-16T02:50:56;100213.06;;;1.15;78.47
76201;BME280;64981;52.930;9.266;2024-01-16T02:53:21;100212.50;;;0.88;79.52
76201;BME280;64981;52.930;9.266;2024-01-16T02:55:47;100198.25;;;0.94;78.96
76201;BME280;64981;52.930;9.266;2024-01-16T02:58:12;100211.97;;;1.07;78.18
76201;BME280;64981;52.930;9.266;2024-01-16T03:00:38;100217.41;;;1.04;78.54
76201;BME280;64981;52.930;9.266;2024-01-16T03:03:03;100208.44;;;1.08;78.48
76201;BME280;64981;52.930;9.266;2024-01-16T03:05:29;100216.59;;;1.03;78.72
76201;BME280;64981;52.930;9.266;2024-01-16T03:07:55;100230.41;;;1.04;79.13
76201;BME280;64981;52.930;9.266;2024-01-16T03:10:21;100225.56;;;0.99;79.29
76201;BME280;64981;52.930;9.266;2024-01-16T03:12:46;100208.97;;;0.89;78.57
76201;BME280;64981;52.930;9.266;2024-01-16T03:15:12;100226.94;;;0.92;77.80
76201;BME280;64981;52.930;9.266;2024-01-16T03:17:38;100234.81;;;1.03;78.33
76201;BME280;64981;52.930;9.266;2024-01-16T03:20:04;100231.28;;;1.27;77.24
76201;BME280;64981;52.930;9.266;2024-01-16T03:22:29;100238.16;;;1.28;77.30
76201;BME280;64981;52.930;9.266;2024-01-16T03:24:55;100234.22;;;1.11;77.65
76201;BME280;64981;52.930;9.266;2024-01-16T03:27:20;100240.31;;;0.99;78.07
76201;BME280;64981;52.930;9.266;2024-01-16T03:29:46;100245.94;;;1.16;77.94
76201;BME280;64981;52.930;9.266;2024-01-16T03:32:11;100254.53;;;1.06;78.48
76201;BME280;64981;52.930;9.266;2024-01-16T03:34:37;100247.22;;;1.11;78.01
76201;BME280;64981;52.930;9.266;2024-01-16T03:37:03;100241.31;;;1.09;78.47
76201;BME280;64981;52.930;9.266;2024-01-16T03:39:28;100247.34;;;1.09;78.75
76201;BME280;64981;52.930;9.266;2024-01-16T03:41:54;100247.19;;;1.00;78.50
76201;BME280;64981;52.930;9.266;2024-01-16T03:44:19;100236.25;;;1.18;78.03
76201;BME280;64981;52.930;9.266;2024-01-16T03:46:45;100244.81;;;0.97;78.87
76201;BME280;64981;52.930;9.266;2024-01-16T03:49:10;100246.69;;;0.95;78.59
76201;BME280;64981;52.930;9.266;2024-01-16T03:51:36;100246.97;;;1.03;77.96
76201;BME280;64981;52.930;9.266;2024-01-16T03:54:01;100234.19;;;1.00;78.27
76201;BME280;64981;52.930;9.266;2024-01-16T03:56:27;100232.00;;;1.17;77.37
76201;BME280;64981;52.930;9.266;2024-01-16T03:58:53;100227.25;;;1.11;77.10
76201;BME280;64981;52.930;9.266;2024-01-16T04:01:18;100230.91;;;1.20;76.25
76201;BME280;64981;52.930;9.266;2024-01-16T04:03:44;100239.88;;;1.05;77.20
76201;BME280;64981;52.930;9.266;2024-01-16T04:06:17;100242.75;;;1.13;76.82
76201;BME280;64981;52.930;9.266;2024-01-16T04:08:44;100234.34;;;1.09;76.43
76201;BME280;64981;52.930;9.266;2024-01-16T04:11:13;100226.50;;;0.98;76.43
76201;BME280;64981;52.930;9.266;2024-01-16T04:13:39;100227.72;;;1.16;75.46
76201;BME280;64981;52.930;9.266;2024-01-16T04:16:05;100233.38;;;1.10;75.19
76201;BME280;64981;52.930;9.266;2024-01-16T04:18:35;100237.41;;;1.03;76.00
76201;BME280;64981;52.930;9.266;2024-01-16T04:21:03;100231.25;;;1.04;74.92
76201;BME280;64981;52.930;9.266;2024-01-16T04:23:28;100243.19;;;1.07;74.88
76201;BME280;64981;52.930;9.266;2024-01-16T04:25:54;100243.63;;;1.01;75.11
76201;BME280;64981;52.930;9.266;2024-01-16T04:28:19;100246.81;;;0.93;75.07
76201;BME280;64981;52.930;9.266;2024-01-16T04:30:45;100253.31;;;0.88;75.44
76201;BME280;64981;52.930;9.266;2024-01-16T04:33:11;100247.81;;;0.80;75.76
76201;BME280;64981;52.930;9.266;2024-01-16T04:35:36;100256.59;;;0.90;75.59
76201;BME280;64981;52.930;9.266;2024-01-16T04:38:02;100250.53;;;0.78;75.93
76201;BME280;64981;52.930;9.266;2024-01-16T04:40:28;100241.84;;;0.66;75.37
76201;BME280;64981;52.930;9.266;2024-01-16T04:42:54;100243.88;;;0.63;75.54
76201;BME280;64981;52.930;9.266;2024-01-16T04:45:19;100238.00;;;0.72;75.09
76201;BME280;64981;52.930;9.266;2024-01-16T04:47:45;100240.31;;;0.88;74.39
76201;BME280;64981;52.930;9.266;2024-01-16T04:50:10;100242.34;;;0.72;74.69
76201;BME280;64981;52.930;9.266;2024-01-16T04:52:36;100243.78;;;0.76;74.64
76201;BME280;64981;52.930;9.266;2024-01-16T04:55:01;100250.09;;;0.60;74.94
76201;BME280;64981;52.930;9.266;2024-01-16T04:57:27;100251.84;;;0.84;73.75
76201;BME280;64981;52.930;9.266;2024-01-16T04:59:53;100250.88;;;0.74;74.30
76201;BME280;64981;52.930;9.266;2024-01-16T05:02:18;100244.78;;;0.62;74.34
76201;BME280;64981;52.930;9.266;2024-01-16T05:04:44;100245.59;;;0.39;75.29
76201;BME280;64981;52.930;9.266;2024-01-16T05:07:09;100245.00;;;0.35;75.07
76201;BME280;64981;52.930;9.266;2024-01-16T05:09:35;100243.13;;;0.37;74.84
76201;BME280;64981;52.930;9.266;2024-01-16T05:12:00;100253.09;;;0.43;74.49
76201;BME280;64981;52.930;9.266;2024-01-16T05:14:26;100237.72;;;0.40;74.19
76201;BME280;64981;52.930;9.266;2024-01-16T05:16:52;100237.06;;;0.49;73.59
76201;BME280;64981;52.930;9.266;2024-01-16T05:19:18;100242.28;;;0.37;73.84
76201;BME280;64981;52.930;9.266;2024-01-16T05:21:44;100233.72;;;0.24;74.07
76201;BME280;64981;52.930;9.266;2024-01-16T05:24:09;100240.97;;;0.31;74.16
76201;BME280;64981;52.930;9.266;2024-01-16T05:26:35;100246.47;;;0.27;74.24
76201;BME280;64981;52.930;9.266;2024-01-16T05:29:00;100232.88;;;0.23;73.72
76201;BME280;64981;52.930;9.266;2024-01-16T05:31:26;100245.91;;;-0.02;74.73
76201;BME280;64981;52.930;9.266;2024-01-16T05:33:51;100241.13;;;0.04;74.79
76201;BME280;64981;52.930;9.266;2024-01-16T05:36:17;100253.22;;;-0.07;75.49
76201;BME280;64981;52.930;9.266;2024-01-16T05:38:43;100238.66;;;0.03;75.20
76201;BME280;64981;52.930;9.266;2024-01-16T05:41:09;100243.44;;;0.09;75.02
76201;BME280;64981;52.930;9.266;2024-01-16T05:43:34;100241.22;;;0.16;74.70
76201;BME280;64981;52.930;9.266;2024-01-16T05:46:00;100252.34;;;0.05;75.53
76201;BME280;64981;52.930;9.266;2024-01-16T05:48:26;100242.09;;;0.03;75.27
76201;BME280;64981;52.930;9.266;2024-01-16T05:50:51;100259.84;;;-0.03;75.67
76201;BME280;64981;52.930;9.266;2024-01-16T05:53:17;100259.03;;;-0.04;75.92
76201;BME280;64981;52.930;9.266;2024-01-16T05:55:42;100259.22;;;0.06;75.47
76201;BME280;64981;52.930;9.266;2024-01-16T05:58:08;100251.44;;;0.06;75.87
76201;BME280;64981;52.930;9.266;2024-01-16T06:00:33;100250.91;;;0.01;75.86
76201;BME280;64981;52.930;9.266;2024-01-16T06:02:59;100251.09;;;0.10;76.11
76201;BME280;64981;52.930;9.266;2024-01-16T06:05:25;100248.09;;;0.04;76.28
76201;BME280;64981;52.930;9.266;2024-01-16T06:07:51;100258.44;;;0.17;76.07
76201;BME280;64981;52.930;9.266;2024-01-16T06:10:17;100252.41;;;0.16;76.50
76201;BME280;64981;52.930;9.266;2024-01-16T06:12:43;100251.66;;;0.27;75.84
76201;BME280;64981;52.930;9.266;2024-01-16T06:15:08;100250.88;;;0.50;75.19
76201;BME280;64981;52.930;9.266;2024-01-16T06:17:36;100244.31;;;0.44;75.12
76201;BME280;64981;52.930;9.266;2024-01-16T06:20:02;100250.72;;;0.40;75.37
76201;BME280;64981;52.930;9.266;2024-01-16T06:22:28;100260.34;;;0.38;75.70
76201;BME280;64981;52.930;9.266;2024-01-16T06:24:53;100245.38;;;0.18;76.29
76201;BME280;64981;52.930;9.266;2024-01-16T06:27:19;100242.34;;;0.24;75.81
76201;BME280;64981;52.930;9.266;2024-01-16T06:29:45;100248.16;;;0.28;75.89
76201;BME280;64981;52.930;9.266;2024-01-16T06:32:11;100245.38;;;0.18;76.46
76201;BME280;64981;52.930;9.266;2024-01-16T06:34:37;100249.88;;;0.40;75.84
76201;BME280;64981;52.930;9.266;2024-01-16T06:37:03;100246.03;;;0.33;76.41
76201;BME280;64981;52.930;9.266;2024-01-16T06:39:28;100227.69;;;0.23;76.74
76201;BME280;64981;52.930;9.266;2024-01-16T06:41:54;100245.94;;;0.34;76.58
76201;BME280;64981;52.930;9.266;2024-01-16T06:44:20;100246.03;;;0.33;76.77
76201;BME280;64981;52.930;9.266;2024-01-16T06:46:45;100244.59;;;0.29;77.16
76201;BME280;64981;52.930;9.266;2024-01-16T06:49:11;100233.44;;;0.39;76.60
76201;BME280;64981;52.930;9.266;2024-01-16T06:51:37;100247.00;;;0.55;76.10
76201;BME280;64981;52.930;9.266;2024-01-16T06:54:02;100240.88;;;0.56;76.69
76201;BME280;64981;52.930;9.266;2024-01-16T06:56:29;100229.69;;;0.67;75.94
76201;BME280;64981;52.930;9.266;2024-01-16T06:58:55;100241.06;;;0.77;75.46
76201;BME280;64981;52.930;9.266;2024-01-16T07:01:21;100239.03;;;0.70;75.79
76201;BME280;64981;52.930;9.266;2024-01-16T07:03:46;100249.63;;;0.66;76.29
76201;BME280;64981;52.930;9.266;2024-01-16T07:06:12;100250.41;;;0.80;75.61
76201;BME280;64981;52.930;9.266;2024-01-16T07:08:37;100248.97;;;0.76;75.94
76201;BME280;64981;52.930;9.266;2024-01-16T07:11:03;100261.03;;;0.77;76.29
76201;BME280;64981;52.930;9.266;2024-01-16T07:13:33;100264.56;;;0.76;76.32
76201;BME280;64981;52.930;9.266;2024-01-16T07:15:59;100267.22;;;0.87;76.45
76201;BME280;64981;52.930;9.266;2024-01-16T07:18:27;100260.28;;;0.87;76.83
76201;BME280;64981;52.930;9.266;2024-01-16T07:20:53;100258.66;;;0.74;77.44
76201;BME280;64981;52.930;9.266;2024-01-16T07:23:19;100264.56;;;0.99;76.73
76201;BME280;64981;52.930;9.266;2024-01-16T07:25:44;100265.28;;;1.01;76.20
76201;BME280;64981;52.930;9.266;2024-01-16T07:28:10;100267.03;;;1.01;75.82
76201;BME280;64981;52.930;9.266;2024-01-16T07:30:35;100267.25;;;0.98;75.79
76201;BME280;64981;52.930;9.266;2024-01-16T07:33:03;100257.69;;;0.98;75.45
76201;BME280;64981;52.930;9.266;2024-01-16T07:35:28;100262.91;;;0.98;75.24
76201;BME280;64981;52.930;9.266;2024-01-16T07:37:54;100270.63;;;1.11;75.02
76201;BME280;64981;52.930;9.266;2024-01-16T07:40:20;100260.97;;;1.13;74.46
76201;BME280;64981;52.930;9.266;2024-01-16T07:42:46;100267.31;;;1.09;74.91
76201;BME280;64981;52.930;9.266;2024-01-16T07:45:11;100268.94;;;0.99;75.21
76201;BME280;64981;52.930;9.266;2024-01-16T07:47:37;100257.38;;;1.03;74.95
76201;BME280;64981;52.930;9.266;2024-01-16T07:50:03;100260.91;;;1.02;74.50
76201;BME280;64981;52.930;9.266;2024-01-16T07:52:29;100259.75;;;1.06;74.30
76201;BME280;64981;52.930;9.266;2024-01-16T07:54:54;100256.41;;;1.04;74.17
76201;BME280;64981;52.930;9.266;2024-01-16T07:57:20;100275.44;;;1.04;74.26
76201;BME280;64981;52.930;9.266;2024-01-16T07:59:46;100259.91;;;0.92;74.36
76201;BME280;64981;52.930;9.266;2024-01-16T08:02:12;100262.66;;;1.01;74.30
76201;BME280;64981;52.930;9.266;2024-01-16T08:04:38;100276.41;;;1.03;74.29
76201;BME280;64981;52.930;9.266;2024-01-16T08:07:03;100273.97;;;1.13;74.21
76201;BME280;64981;52.930;9.266;2024-01-16T08:09:29;100275.94;;;1.09;73.86
76201;BME280;64981;52.930;9.266;2024-01-16T08:11:54;100282.34;;;1.16;73.76
76201;BME280;64981;52.930;9.266;2024-01-16T08:14:20;100281.75;;;1.13;73.58
76201;BME280;64981;52.930;9.266;2024-01-16T08:16:46;100280.84;;;1.25;73.52
76201;BME280;64981;52.930;9.266;2024-01-16T08:19:11;100273.75;;;1.27;73.41
76201;BME280;64981;52.930;9.266;2024-01-16T08:21:37;100277.78;;;1.31;73.21
76201;BME280;64981;52.930;9.266;2024-01-16T08:24:02;100280.78;;;1.38;73.24
76201;BME280;64981;52.930;9.266;2024-01-16T08:26:28;100278.50;;;1.33;72.93
76201;BME280;64981;52.930;9.266;2024-01-16T08:28:54;100282.91;;;1.44;72.89
76201;BME280;64981;52.930;9.266;2024-01-16T08:31:20;100285.97;;;1.49;72.64
76201;BME280;64981;52.930;9.266;2024-01-16T08:33:45;100280.63;;;1.39;72.63
76201;BME280;64981;52.930;9.266;2024-01-16T08:36:11;100281.38;;;1.41;72.96
76201;BME280;64981;52.930;9.266;2024-01-16T08:38:37;100274.63;;;1.50;72.58
76201;BME280;64981;52.930;9.266;2024-01-16T08:41:02;100286.81;;;1.49;72.72
76201;BME280;64981;52.930;9.266;2024-01-16T08:43:33;100273.91;;;1.48;72.37
76201;BME280;64981;52.930;9.266;2024-01-16T08:45:59;100284.06;;;1.40;73.23
76201;BME280;64981;52.930;9.266;2024-01-16T08:48:24;100286.34;;;1.55;72.66
76201;BME280;64981;52.930;9.266;2024-01-16T08:50:51;100282.34;;;1.62;72.21
76201;BME280;64981;52.930;9.266;2024-01-16T08:53:17;100277.47;;;1.58;72.63
76201;BME280;64981;52.930;9.266;2024-01-16T08:55:43;100286.97;;;1.70;72.11
76201;BME280;64981;52.930;9.266;2024-01-16T08:58:08;100288.28;;;1.76;72.04
76201;BME280;64981;52.930;9.266;2024-01-16T09:00:34;100285.69;;;1.76;72.12
76201;BME280;64981;52.930;9.266;2024-01-16T09:02:59;100292.31;;;1.91;71.42
76201;BME280;64981;52.930;9.266;2024-01-16T09:05:25;100284.84;;;1.86;71.69
76201;BME280;64981;52.930;9.266;2024-01-16T09:07:51;100292.91;;;1.94;71.60
76201;BME280;64981;52.930;9.266;2024-01-16T09:10:18;100276.94;;;2.10;70.92
76201;BME280;64981;52.930;9.266;2024-01-16T09:12:44;100281.53;;;2.28;70.40
76201;BME280;64981;52.930;9.266;2024-01-16T09:15:10;100294.66;;;2.05;71.53
76201;BME280;64981;52.930;9.266;2024-01-16T09:17:36;100289.97;;;2.10;70.91
76201;BME280;64981;52.930;9.266;2024-01-16T09:20:01;100292.09;;;2.16;70.78
76201;BME280;64981;52.930;9.266;2024-01-16T09:22:27;100290.03;;;2.31;70.31
76201;BME280;64981;52.930;9.266;2024-01-16T09:24:53;100286.84;;;2.38;70.34
76201;BME280;64981;52.930;9.266;2024-01-16T09:27:18;100303.88;;;2.53;69.94
76201;BME280;64981;52.930;9.266;2024-01-16T09:29:45;100289.97;;;2.75;68.89
76201;BME280;64981;52.930;9.266;2024-01-16T09:32:10;100296.06;;;2.53;69.14
76201;BME280;64981;52.930;9.266;2024-01-16T09:34:36;100288.34;;;2.52;68.89
76201;BME280;64981;52.930;9.266;2024-01-16T09:37:01;100300.16;;;2.67;69.06
76201;BME280;64981;52.930;9.266;2024-01-16T09:39:28;100303.84;;;2.75;68.26
76201;BME280;64981;52.930;9.266;2024-01-16T09:41:59;100296.44;;;2.92;68.62
76201;BME280;64981;52.930;9.266;2024-01-16T09:44:27;100297.88;;;2.73;68.80
76201;BME280;64981;52.930;9.266;2024-01-16T09:46:55;100285.44;;;2.77;68.42
76201;BME280;64981;52.930;9.266;2024-01-16T09:49:21;100288.44;;;2.72;68.54
76201;BME280;64981;52.930;9.266;2024-01-16T09:51:48;100302.16;;;2.74;68.30
76201;BME280;64981;52.930;9.266;2024-01-16T09:54:14;100294.44;;;2.84;68.60
76201;BME280;64981;52.930;9.266;2024-01-16T09:56:43;100296.47;;;2.80;68.38
76201;BME280;64981;52.930;9.266;2024-01-16T09:59:09;100283.91;;;2.74;68.80
76201;BME280;64981;52.930;9.266;2024-01-16T10:01:37;100295.38;;;2.83;68.30
76201;BME280;64981;52.930;9.266;2024-01-16T10:04:03;100293.75;;;2.82;68.05
76201;BME280;64981;52.930;9.266;2024-01-16T10:06:31;100283.94;;;2.95;67.68
76201;BME280;64981;52.930;9.266;2024-01-16T10:08:59;100294.03;;;3.00;67.71
76201;BME280;64981;52.930;9.266;2024-01-16T10:11:24;100301.28;;;3.17;67.70
76201;BME280;64981;52.930;9.266;2024-01-16T10:13:50;100290.06;;;3.05;67.98
76201;BME280;64981;52.930;9.266;2024-01-16T10:16:16;100302.25;;;3.36;66.31
76201;BME280;64981;52.930;9.266;2024-01-16T10:18:42;100297.81;;;3.48;66.10
76201;BME280;64981;52.930;9.266;2024-01-16T10:21:20;100297.81;;;3.69;66.36
76201;BME280;64981;52.930;9.266;2024-01-16T10:23:50;100302.06;;;3.49;66.38
76201;BME280;64981;52.930;9.266;2024-01-16T10:26:16;100294.13;;;3.51;65.59
76201;BME280;64981;52.930;9.266;2024-01-16T10:28:43;100306.22;;;3.72;65.67
76201;BME280;64981;52.930;9.266;2024-01-16T10:31:11;100299.00;;;3.85;65.37
76201;BME280;64981;52.930;9.266;2024-01-16T10:33:37;100295.72;;;3.93;64.93
76201;BME280;64981;52.930;9.266;2024-01-16T10:36:12;100298.59;;;4.20;63.79
76201;BME280;64981;52.930;9.266;2024-01-16T10:38:40;100297.63;;;4.21;63.72
76201;BME280;64981;52.930;9.266;2024-01-16T10:41:09;100300.66;;;4.17;63.75
76201;BME280;64981;52.930;9.266;2024-01-16T10:43:36;100302.59;;;4.24;63.94
76201;BME280;64981;52.930;9.266;2024-01-16T10:46:11;100298.81;;;4.08;63.69
76201;BME280;64981;52.930;9.266;2024-01-16T10:48:39;100303.56;;;4.54;63.01
76201;BME280;64981;52.930;9.266;2024-01-16T10:51:06;100301.94;;;4.72;62.21
76201;BME280;64981;52.930;9.266;2024-01-16T10:53:34;100296.06;;;4.39;63.41
76201;BME280;64981;52.930;9.266;2024-01-16T10:56:01;100306.81;;;4.46;63.26
76201;BME280;64981;52.930;9.266;2024-01-16T10:58:30;100306.91;;;4.84;61.90
76201;BME280;64981;52.930;9.266;2024-01-16T11:01:02;100304.63;;;4.41;63.11
76201;BME280;64981;52.930;9.266;2024-01-16T11:03:48;100311.25;;;4.55;62.80
76201;BME280;64981;52.930;9.266;2024-01-16T11:06:16;100309.50;;;4.75;62.92
76201;BME280;64981;52.930;9.266;2024-01-16T11:08:42;100315.16;;;4.80;62.10
76201;BME280;64981;52.930;9.266;2024-01-16T11:11:11;100317.25;;;4.76;62.82
76201;BME280;64981;52.930;9.266;2024-01-16T11:13:38;100321.06;;;4.72;63.63
76201;BME280;64981;52.930;9.266;2024-01-16T11:16:05;100321.22;;;4.80;62.17
76201;BME280;64981;52.930;9.266;2024-01-16T11:18:33;100322.47;;;4.95;61.85
76201;BME280;64981;52.930;9.266;2024-01-16T11:21:02;100311.91;;;5.26;61.16
76201;BME280;64981;52.930;9.266;2024-01-16T11:23:30;100333.13;;;5.42;60.73
76201;BME280;64981;52.930;9.266;2024-01-16T11:25:56;100322.50;;;5.34;60.17
76201;BME280;64981;52.930;9.266;2024-01-16T11:28:27;100327.31;;;5.48;60.42
76201;BME280;64981;52.930;9.266;2024-01-16T11:30:53;100319.88;;;5.34;60.23
76201;BME280;64981;52.930;9.266;2024-01-16T11:39:00;100318.50;;;5.11;61.05
76201;BME280;64981;52.930;9.266;2024-01-16T11:47:08;100313.59;;;4.58;62.51
76201;BME280;64981;52.930;9.266;2024-01-16T11:49:36;100312.34;;;4.53;62.55
76201;BME280;64981;52.930;9.266;2024-01-16T11:52:02;100317.16;;;4.48;62.52
76201;BME280;64981;52.930;9.266;2024-01-16T11:54:27;100320.59;;;4.38;63.11
76201;BME280;64981;52.930;9.266;2024-01-16T12:00:02;100320.25;;;4.02;64.59
76201;BME280;64981;52.930;9.266;2024-01-16T12:02:52;100326.25;;;3.93;65.01
76201;BME280;64981;52.930;9.266;2024-01-16T12:05:18;100325.78;;;4.08;65.08
76201;BME280;64981;52.930;9.266;2024-01-16T12:07:47;100315.50;;;3.86;64.42
76201;BME280;64981;52.930;9.266;2024-01-16T12:10:20;100332.34;;;3.72;65.52
76201;BME280;64981;52.930;9.266;2024-01-16T12:12:47;100335.06;;;3.50;66.48
76201;BME280;64981;52.930;9.266;2024-01-16T12:15:21;100337.69;;;3.50;65.89
76201;BME280;64981;52.930;9.266;2024-01-16T12:17:56;100322.97;;;3.28;66.33
76201;BME280;64981;52.930;9.266;2024-01-16T12:20:25;100331.28;;;2.91;68.04
76201;BME280;64981;52.930;9.266;2024-01-16T12:23:01;100330.66;;;3.30;66.63
76201;BME280;64981;52.930;9.266;2024-01-16T12:25:30;100316.75;;;3.09;67.50
76201;BME280;64981;52.930;9.266;2024-01-16T12:27:57;100317.41;;;3.22;67.41
76201;BME280;64981;52.930;9.266;2024-01-16T12:30:25;100317.03;;;3.26;67.22
76201;BME280;64981;52.930;9.266;2024-01-16T12:33:11;100316.13;;;3.16;67.28
76201;BME280;64981;52.930;9.266;2024-01-16T12:35:40;100310.50;;;3.00;68.39
76201;BME280;64981;52.930;9.266;2024-01-16T12:38:08;100314.31;;;2.96;67.96
76201;BME280;64981;52.930;9.266;2024-01-16T12:40:36;100310.28;;;2.92;67.81
76201;BME280;64981;52.930;9.266;2024-01-16T12:43:03;100315.34;;;3.05;67.88
76201;BME280;64981;52.930;9.266;2024-01-16T12:45:30;100299.81;;;3.03;68.10
76201;BME280;64981;52.930;9.266;2024-01-16T12:47:56;100312.13;;;3.01;68.60
76201;BME280;64981;52.930;9.266;2024-01-16T12:50:25;100308.84;;;2.99;68.31
76201;BME280;64981;52.930;9.266;2024-01-16T12:53:02;100302.69;;;3.00;68.63
76201;BME280;64981;52.930;9.266;2024-01-16T12:55:30;100299.75;;;2.94;68.53
76201;BME280;64981;52.930;9.266;2024-01-16T12:58:14;100306.81;;;3.03;68.79
76201;BME280;64981;52.930;9.266;2024-01-16T13:00:40;100300.44;;;2.96;68.68
76201;BME280;64981;52.930;9.266;2024-01-16T13:03:06;100296.38;;;2.71;69.60
76201;BME280;64981;52.930;9.266;2024-01-16T13:05:32;100294.94;;;2.78;69.65
76201;BME280;64981;52.930;9.266;2024-01-16T13:08:00;100284.09;;;2.82;69.46
76201;BME280;64981;52.930;9.266;2024-01-16T13:10:28;100294.34;;;3.06;68.64
76201;BME280;64981;52.930;9.266;2024-01-16T13:15:43;100291.34;;;3.11;68.46
76201;BME280;64981;52.930;9.266;2024-01-16T13:18:18;100281.56;;;3.24;67.96